sensor_id;sensor_type;location;lat;lon;timestamp;temperature;humidity
37086;DHT22;23001;45.952;12.676;2023-02-07T06:26:31;-1.50;99.90
37086;DHT22;23001;45.952;12.676;2023-02-07T06:28:57;-1.30;99.90
37086;DHT22;23001;45.952;12.676;2023-02-07T07:35:02;0.00;99.90
37086;DHT22;23001;45.952;12.676;2023-02-07T09:53:14;2.50;97.70
37086;DHT22;23001;45.952;12.676;2023-02-07T09:55:43;2.30;97.50
37086;DHT22;23001;45.952;12.676;2023-02-07T09:58:14;2.30;97.70
37086;DHT22;23001;45.952;12.676;2023-02-07T10:00:42;2.40;97.50
37086;DHT22;23001;45.952;12.676;2023-02-07T10:03:19;2.40;97.30
37086;DHT22;23001;45.952;12.676;2023-02-07T10:09:08;2.50;97.70
37086;DHT22;23001;45.952;12.676;2023-02-07T10:11:50;2.60;98.60
37086;DHT22;23001;45.952;12.676;2023-02-07T10:14:30;2.70;98.40
37086;DHT22;23001;45.952;12.676;2023-02-07T10:22:39;2.70;97.60
37086;DHT22;23001;45.952;12.676;2023-02-07T10:28:46;2.70;98.70
37086;DHT22;23001;45.952;12.676;2023-02-07T10:31:17;2.80;97.80
37086;DHT22;23001;45.952;12.676;2023-02-07T10:34:00;2.70;98.00
37086;DHT22;23001;45.952;12.676;2023-02-07T10:36:31;2.80;98.00
37086;DHT22;23001;45.952;12.676;2023-02-07T10:48:15;2.90;97.60
37086;DHT22;23001;45.952;12.676;2023-02-07T10:53:50;3.00;96.90
37086;DHT22;23001;45.952;12.676;2023-02-07T10:56:40;3.00;97.50
37086;DHT22;23001;45.952;12.676;2023-02-07T10:59:40;3.20;97.70
37086;DHT22;23001;45.952;12.676;2023-02-07T11:04:54;3.30;98.00
37086;DHT22;23001;45.952;12.676;2023-02-07T11:07:21;3.30;97.00
37086;DHT22;23001;45.952;12.676;2023-02-07T11:10:15;3.30;97.10
37086;DHT22;23001;45.952;12.676;2023-02-07T11:12:45;3.50;97.00
37086;DHT22;23001;45.952;12.676;2023-02-07T11:15:30;3.50;96.90
37086;DHT22;23001;45.952;12.676;2023-02-07T11:18:06;3.60;97.20
37086;DHT22;23001;45.952;12.676;2023-02-07T11:26:31;3.60;96.20
37086;DHT22;23001;45.952;12.676;2023-02-07T11:29:06;3.50;96.10
37086;DHT22;23001;45.952;12.676;2023-02-07T11:31:43;3.60;96.30
37086;DHT22;23001;45.952;12.676;2023-02-07T11:36:51;3.90;96.00
37086;DHT22;23001;45.952;12.676;2023-02-07T11:39:21;3.90;95.90
37086;DHT22;23001;45.952;12.676;2023-02-07T11:42:12;4.00;96.10
37086;DHT22;23001;45.952;12.676;2023-02-07T11:44:41;3.90;95.40
37086;DHT22;23001;45.952;12.676;2023-02-07T11:47:13;3.90;95.70
37086;DHT22;23001;45.952;12.676;2023-02-07T11:49:51;3.80;95.80
37086;DHT22;23001;45.952;12.676;2023-02-07T11:52:19;3.90;95.70
37086;DHT22;23001;45.952;12.676;2023-02-07T11:54:52;4.00;95.90
37086;DHT22;23001;45.952;12.676;2023-02-07T11:57:20;4.00;95.20
37086;DHT22;23001;45.952;12.676;2023-02-07T12:00:03;4.00;95.40
37086;DHT22;23001;45.952;12.676;2023-02-07T12:02:32;4.10;95.40
37086;DHT22;23001;45.952;12.676;2023-02-07T12:05:28;4.10;95.90
37086;DHT22;23001;45.952;12.676;2023-02-07T12:08:02;4.10;96.00
37086;DHT22;23001;45.952;12.676;2023-02-07T12:10:33;4.30;96.00
37086;DHT22;23001;45.952;12.676;2023-02-07T12:13:03;4.20;95.50
37086;DHT22;23001;45.952;12.676;2023-02-07T12:15:50;4.10;95.40
37086;DHT22;23001;45.952;12.676;2023-02-07T12:24:28;4.30;95.30
37086;DHT22;23001;45.952;12.676;2023-02-07T12:27:14;4.30;95.00
37086;DHT22;23001;45.952;12.676;2023-02-07T12:39:10;4.40;95.50
37086;DHT22;23001;45.952;12.676;2023-02-07T12:41:45;4.50;95.20
37086;DHT22;23001;45.952;12.676;2023-02-07T12:54:23;4.60;94.30
37086;DHT22;23001;45.952;12.676;2023-02-07T13:03:40;4.80;94.70
37086;DHT22;23001;45.952;12.676;2023-02-07T13:09:02;4.80;93.90
37086;DHT22;23001;45.952;12.676;2023-02-07T13:23:03;4.80;93.80
37086;DHT22;23001;45.952;12.676;2023-02-07T13:25:56;4.80;94.90
37086;DHT22;23001;45.952;12.676;2023-02-07T13:31:43;4.90;94.20
37086;DHT22;23001;45.952;12.676;2023-02-07T13:34:36;5.00;94.30
37086;DHT22;23001;45.952;12.676;2023-02-07T13:37:05;5.10;94.30
37086;DHT22;23001;45.952;12.676;2023-02-07T13:40:03;5.10;94.10
37086;DHT22;23001;45.952;12.676;2023-02-07T13:42:55;5.10;94.20
37086;DHT22;23001;45.952;12.676;2023-02-07T13:45:44;5.00;94.20
37086;DHT22;23001;45.952;12.676;2023-02-07T13:51:28;5.10;93.90
37086;DHT22;23001;45.952;12.676;2023-02-07T13:56:35;5.10;93.80
37086;DHT22;23001;45.952;12.676;2023-02-07T13:59:36;5.20;94.20
37086;DHT22;23001;45.952;12.676;2023-02-07T14:02:05;5.30;94.40
37086;DHT22;23001;45.952;12.676;2023-02-07T14:04:55;5.20;93.90
37086;DHT22;23001;45.952;12.676;2023-02-07T14:07:32;5.10;93.50
37086;DHT22;23001;45.952;12.676;2023-02-07T14:10:04;5.10;93.40
37086;DHT22;23001;45.952;12.676;2023-02-07T14:12:38;5.10;94.00
37086;DHT22;23001;45.952;12.676;2023-02-07T14:30:31;5.10;93.80
37086;DHT22;23001;45.952;12.676;2023-02-07T14:39:20;5.20;93.30
37086;DHT22;23001;45.952;12.676;2023-02-07T14:41:49;5.20;93.50
37086;DHT22;23001;45.952;12.676;2023-02-07T14:44:36;5.20;93.60
37086;DHT22;23001;45.952;12.676;2023-02-07T14:50:50;5.10;93.60
37086;DHT22;23001;45.952;12.676;2023-02-07T14:53:17;5.10;93.10
37086;DHT22;23001;45.952;12.676;2023-02-07T14:59:38;5.10;93.60
37086;DHT22;23001;45.952;12.676;2023-02-07T15:12:11;5.10;92.60
37086;DHT22;23001;45.952;12.676;2023-02-07T15:14:41;5.00;92.50
37086;DHT22;23001;45.952;12.676;2023-02-07T15:17:23;5.00;92.50
37086;DHT22;23001;45.952;12.676;2023-02-07T15:29:41;4.80;93.40
37086;DHT22;23001;45.952;12.676;2023-02-07T16:01:34;4.50;92.10
37086;DHT22;23001;45.952;12.676;2023-02-07T16:04:03;4.50;91.70
37086;DHT22;23001;45.952;12.676;2023-02-07T16:09:45;4.40;92.30
37086;DHT22;23001;45.952;12.676;2023-02-07T16:12:32;4.30;92.70
37086;DHT22;23001;45.952;12.676;2023-02-07T16:14:59;4.20;93.40
37086;DHT22;23001;45.952;12.676;2023-02-07T16:17:38;4.00;94.00
37086;DHT22;23001;45.952;12.676;2023-02-07T16:34:44;3.60;94.80
37086;DHT22;23001;45.952;12.676;2023-02-07T16:37:10;3.50;94.90
37086;DHT22;23001;45.952;12.676;2023-02-07T16:39:42;3.50;95.70
37086;DHT22;23001;45.952;12.676;2023-02-07T16:49:01;3.20;96.20
37086;DHT22;23001;45.952;12.676;2023-02-07T17:01:36;3.00;98.20
37086;DHT22;23001;45.952;12.676;2023-02-07T17:04:02;2.80;98.10
37086;DHT22;23001;45.952;12.676;2023-02-07T17:06:28;2.70;98.50
37086;DHT22;23001;45.952;12.676;2023-02-07T17:08:55;2.80;99.10
37086;DHT22;23001;45.952;12.676;2023-02-07T17:11:22;2.80;99.20
37086;DHT22;23001;45.952;12.676;2023-02-07T17:13:58;2.70;99.10
37086;DHT22;23001;45.952;12.676;2023-02-07T17:16:25;2.50;99.50
37086;DHT22;23001;45.952;12.676;2023-02-07T17:18:52;2.50;99.80
37086;DHT22;23001;45.952;12.676;2023-02-07T17:21:18;2.50;99.90
37086;DHT22;23001;45.952;12.676;2023-02-07T17:23:46;2.50;99.90
37086;DHT22;23001;45.952;12.676;2023-02-07T17:26:27;2.40;99.90
37086;DHT22;23001;45.952;12.676;2023-02-07T17:28:55;2.40;99.90
37086;DHT22;23001;45.952;12.676;2023-02-07T17:31:21;2.50;99.90
37086;DHT22;23001;45.952;12.676;2023-02-07T17:33:47;2.40;99.90
37086;DHT22;23001;45.952;12.676;2023-02-07T17:36:14;2.40;99.90
37086;DHT22;23001;45.952;12.676;2023-02-07T17:38:41;2.50;99.90
37086;DHT22;23001;45.952;12.676;2023-02-07T17:41:12;2.50;99.90
37086;DHT22;23001;45.952;12.676;2023-02-07T17:43:38;2.40;99.90
37086;DHT22;23001;45.952;12.676;2023-02-07T17:48:40;2.30;99.90
37086;DHT22;23001;45.952;12.676;2023-02-07T17:51:06;2.20;99.90
37086;DHT22;23001;45.952;12.676;2023-02-07T17:53:32;2.20;99.90
37086;DHT22;23001;45.952;12.676;2023-02-07T17:55:58;2.10;99.90
37086;DHT22;23001;45.952;12.676;2023-02-07T17:58:24;2.10;99.90
37086;DHT22;23001;45.952;12.676;2023-02-07T18:00:49;2.10;99.90
37086;DHT22;23001;45.952;12.676;2023-02-07T18:03:15;2.20;99.90
37086;DHT22;23001;45.952;12.676;2023-02-07T18:05:42;2.10;99.90
37086;DHT22;23001;45.952;12.676;2023-02-07T18:08:12;2.20;99.90
37086;DHT22;23001;45.952;12.676;2023-02-07T18:10:38;2.10;99.90
37086;DHT22;23001;45.952;12.676;2023-02-07T18:13:04;2.10;99.90
37086;DHT22;23001;45.952;12.676;2023-02-07T18:15:30;2.00;99.90
37086;DHT22;23001;45.952;12.676;2023-02-07T18:17:56;2.10;99.90
37086;DHT22;23001;45.952;12.676;2023-02-07T18:20:31;2.10;99.90
37086;DHT22;23001;45.952;12.676;2023-02-07T18:22:57;2.10;99.90
37086;DHT22;23001;45.952;12.676;2023-02-07T18:25:24;2.00;99.90
37086;DHT22;23001;45.952;12.676;2023-02-07T18:30:34;1.80;99.90
37086;DHT22;23001;45.952;12.676;2023-02-07T18:33:06;1.80;99.90
37086;DHT22;23001;45.952;12.676;2023-02-07T18:35:32;1.70;99.90
37086;DHT22;23001;45.952;12.676;2023-02-07T18:41:18;1.80;99.90
37086;DHT22;23001;45.952;12.676;2023-02-07T18:44:08;1.90;99.90
37086;DHT22;23001;45.952;12.676;2023-02-07T18:46:33;1.80;99.90
37086;DHT22;23001;45.952;12.676;2023-02-07T18:48:59;1.70;99.90
37086;DHT22;23001;45.952;12.676;2023-02-07T18:51:25;1.50;99.90
37086;DHT22;23001;45.952;12.676;2023-02-07T18:53:51;1.60;99.90
37086;DHT22;23001;45.952;12.676;2023-02-07T18:56:22;1.60;99.90
37086;DHT22;23001;45.952;12.676;2023-02-07T19:20:35;1.20;99.90
37086;DHT22;23001;45.952;12.676;2023-02-07T19:23:09;1.20;99.90
37086;DHT22;23001;45.952;12.676;2023-02-07T19:53:02;1.00;99.90
37086;DHT22;23001;45.952;12.676;2023-02-07T19:59:09;0.90;99.90
37086;DHT22;23001;45.952;12.676;2023-02-07T20:11:46;1.00;99.90
37086;DHT22;23001;45.952;12.676;2023-02-07T21:09:36;0.80;99.90
37086;DHT22;23001;45.952;12.676;2023-02-07T21:23:18;0.90;99.90
37086;DHT22;23001;45.952;12.676;2023-02-07T21:46:38;0.60;99.90
37086;DHT22;23001;45.952;12.676;2023-02-07T21:49:10;0.60;99.90
37086;DHT22;23001;45.952;12.676;2023-02-07T21:51:39;0.50;99.90
37086;DHT22;23001;45.952;12.676;2023-02-07T21:54:05;0.40;99.90
37086;DHT22;23001;45.952;12.676;2023-02-07T21:56:36;0.40;99.90
37086;DHT22;23001;45.952;12.676;2023-02-07T21:59:21;0.40;99.90
37086;DHT22;23001;45.952;12.676;2023-02-07T22:01:47;0.30;99.90
37086;DHT22;23001;45.952;12.676;2023-02-07T22:04:13;0.20;99.90
37086;DHT22;23001;45.952;12.676;2023-02-07T22:06:40;0.10;99.90
37086;DHT22;23001;45.952;12.676;2023-02-07T22:09:10;0.30;99.90
37086;DHT22;23001;45.952;12.676;2023-02-07T22:11:35;0.30;99.90
37086;DHT22;23001;45.952;12.676;2023-02-07T22:14:02;0.20;99.90
37086;DHT22;23001;45.952;12.676;2023-02-07T22:16:29;0.10;99.90
37086;DHT22;23001;45.952;12.676;2023-02-07T22:18:57;0.10;99.90
37086;DHT22;23001;45.952;12.676;2023-02-07T22:21:28;0.20;99.90
37086;DHT22;23001;45.952;12.676;2023-02-07T22:23:56;0.20;99.90
37086;DHT22;23001;45.952;12.676;2023-02-07T22:26:23;0.30;99.90
37086;DHT22;23001;45.952;12.676;2023-02-07T22:28:49;0.40;99.90
37086;DHT22;23001;45.952;12.676;2023-02-07T22:31:18;0.20;99.90
37086;DHT22;23001;45.952;12.676;2023-02-07T22:33:46;0.30;99.90
37086;DHT22;23001;45.952;12.676;2023-02-07T22:36:26;0.20;99.90
37086;DHT22;23001;45.952;12.676;2023-02-07T22:38:56;0.20;99.90
37086;DHT22;23001;45.952;12.676;2023-02-07T22:41:22;0.20;99.90
37086;DHT22;23001;45.952;12.676;2023-02-07T22:43:48;0.30;99.90
37086;DHT22;23001;45.952;12.676;2023-02-07T22:46:17;0.30;99.90
37086;DHT22;23001;45.952;12.676;2023-02-07T22:48:43;0.30;99.90
37086;DHT22;23001;45.952;12.676;2023-02-07T22:53:40;0.10;99.90
37086;DHT22;23001;45.952;12.676;2023-02-07T22:56:06;0.20;99.90
37086;DHT22;23001;45.952;12.676;2023-02-07T22:58:32;0.20;99.90
37086;DHT22;23001;45.952;12.676;2023-02-07T23:00:57;0.30;99.90
37086;DHT22;23001;45.952;12.676;2023-02-07T23:03:23;0.30;99.90
37086;DHT22;23001;45.952;12.676;2023-02-07T23:05:49;0.40;99.90
37086;DHT22;23001;45.952;12.676;2023-02-07T23:08:14;0.40;99.90
37086;DHT22;23001;45.952;12.676;2023-02-07T23:10:41;0.50;99.90
37086;DHT22;23001;45.952;12.676;2023-02-07T23:13:08;0.30;99.90
37086;DHT22;23001;45.952;12.676;2023-02-07T23:15:34;0.20;99.90
37086;DHT22;23001;45.952;12.676;2023-02-07T23:18:02;0.20;99.90
37086;DHT22;23001;45.952;12.676;2023-02-07T23:20:28;0.20;99.90
37086;DHT22;23001;45.952;12.676;2023-02-07T23:22:54;0.10;99.90
37086;DHT22;23001;45.952;12.676;2023-02-07T23:25:19;0.10;99.90
37086;DHT22;23001;45.952;12.676;2023-02-07T23:27:45;0.10;99.90
37086;DHT22;23001;45.952;12.676;2023-02-07T23:30:13;-0.10;99.90
37086;DHT22;23001;45.952;12.676;2023-02-07T23:32:40;-0.20;99.90
37086;DHT22;23001;45.952;12.676;2023-02-07T23:35:06;-0.30;99.90
37086;DHT22;23001;45.952;12.676;2023-02-07T23:37:34;-0.20;99.90
37086;DHT22;23001;45.952;12.676;2023-02-07T23:40:00;-0.10;99.90
37086;DHT22;23001;45.952;12.676;2023-02-07T23:42:26;0.00;99.90
37086;DHT22;23001;45.952;12.676;2023-02-07T23:44:52;0.10;99.90
37086;DHT22;23001;45.952;12.676;2023-02-07T23:47:18;0.00;99.90
37086;DHT22;23001;45.952;12.676;2023-02-07T23:49:46;-0.10;99.90
37086;DHT22;23001;45.952;12.676;2023-02-07T23:52:12;-0.20;99.90
37086;DHT22;23001;45.952;12.676;2023-02-07T23:54:38;-0.40;99.90
37086;DHT22;23001;45.952;12.676;2023-02-07T23:57:04;-0.40;99.90
37086;DHT22;23001;45.952;12.676;2023-02-07T23:59:29;-0.20;99.90
